createdAt,value
2023-02-28T00:01:10.000Z,-0.31
2023-02-28T00:03:37.686Z,-0.29
2023-02-28T00:06:06.127Z,-0.45
2023-02-28T00:08:35.453Z,-0.24
2023-02-28T00:11:04.641Z,-0.03
2023-02-28T00:13:32.811Z,0.07
2023-02-28T00:16:02.219Z,0.04
2023-02-28T00:18:31.514Z,0.13
2023-02-28T00:20:59.873Z,-0.13
2023-02-28T00:23:28.336Z,-0.01
2023-02-28T00:25:57.870Z,-0.01
2023-02-28T00:28:25.568Z,-0.06
2023-02-28T00:30:53.536Z,-0.21
2023-02-28T00:33:21.504Z,-0.28
2023-02-28T00:35:49.690Z,-0.44
2023-02-28T00:38:17.554Z,-0.52
2023-02-28T00:40:45.230Z,-0.36
2023-02-28T00:43:14.166Z,-0.46
2023-02-28T00:45:41.816Z,-0.58
2023-02-28T00:48:09.392Z,-0.77
2023-02-28T00:50:37.005Z,-0.69
2023-02-28T00:53:04.734Z,-0.44
2023-02-28T00:55:32.367Z,-0.53
2023-02-28T00:57:59.917Z,-0.65
2023-02-28T01:00:29.218Z,-0.84
2023-02-28T01:02:56.853Z,-0.67
2023-02-28T01:05:24.789Z,-0.76
2023-02-28T01:07:52.436Z,-0.83
2023-02-28T01:10:21.771Z,-0.85
2023-02-28T01:12:50.625Z,-0.68
2023-02-28T01:15:18.443Z,-0.81
2023-02-28T01:17:48.071Z,-0.90
2023-02-28T01:20:16.168Z,-1.03
2023-02-28T01:22:43.787Z,-1.15
2023-02-28T01:25:11.442Z,-1.26
2023-02-28T01:27:40.381Z,-1.29
2023-02-28T01:30:09.793Z,-1.26
2023-02-28T01:32:37.942Z,-1.20
2023-02-28T01:35:07.728Z,-1.21
2023-02-28T01:37:35.342Z,-1.40
2023-02-28T01:40:03.001Z,-1.37
2023-02-28T01:42:30.763Z,-1.24
2023-02-28T01:45:20.355Z,-1.21
2023-02-28T01:47:51.963Z,-1.04
2023-02-28T01:50:25.008Z,-1.20
2023-02-28T01:52:55.050Z,-1.17
2023-02-28T01:55:29.487Z,-1.14
2023-02-28T01:58:02.955Z,-1.20
2023-02-28T02:00:32.404Z,-1.38
2023-02-28T02:03:05.530Z,-1.35
2023-02-28T02:05:35.440Z,-1.35
2023-02-28T02:08:06.190Z,-1.35
2023-02-28T02:10:37.457Z,-1.35
2023-02-28T02:13:36.845Z,-1.31
2023-02-28T02:16:17.966Z,-1.17
2023-02-28T02:18:50.050Z,-1.14
2023-02-28T02:21:50.649Z,-1.24
2023-02-28T02:25:01.136Z,-1.27
2023-02-28T02:27:41.646Z,-1.26
2023-02-28T02:30:29.074Z,-1.24
2023-02-28T02:33:21.985Z,-1.67
2023-02-28T02:35:56.805Z,-1.31
2023-02-28T02:38:35.816Z,-1.52
2023-02-28T02:41:10.585Z,-1.67
2023-02-28T02:43:42.820Z,-1.77
2023-02-28T02:46:16.046Z,-1.69
2023-02-28T02:48:48.073Z,-1.74
2023-02-28T02:51:20.756Z,-1.61
2023-02-28T02:53:52.766Z,-1.50
2023-02-28T02:56:23.460Z,-1.55
2023-02-28T02:58:54.740Z,-1.42
2023-02-28T03:01:29.721Z,-1.75
2023-02-28T03:04:00.194Z,-1.70
2023-02-28T03:06:29.341Z,-1.37
2023-02-28T03:08:57.036Z,-1.50
2023-02-28T03:11:25.207Z,-1.36
2023-02-28T03:14:28.054Z,-1.47
2023-02-28T03:17:08.349Z,-1.54
2023-02-28T03:19:49.350Z,-1.60
2023-02-28T03:22:32.229Z,-1.51
2023-02-28T03:25:10.823Z,-1.57
2023-02-28T03:28:12.045Z,-1.76
2023-02-28T03:30:47.758Z,-1.67
2023-02-28T03:33:17.720Z,-1.90
2023-02-28T03:35:50.407Z,-1.70
2023-02-28T03:38:24.451Z,-1.73
2023-02-28T03:40:57.007Z,-1.75
2023-02-28T03:43:28.648Z,-1.67
2023-02-28T03:45:57.803Z,-1.76
2023-02-28T03:48:32.889Z,-1.57
2023-02-28T03:51:03.252Z,-1.67
2023-02-28T03:53:35.561Z,-1.69
2023-02-28T03:56:07.797Z,-1.47
2023-02-28T03:58:44.165Z,-1.54
2023-02-28T04:01:15.963Z,-1.57
2023-02-28T04:03:43.737Z,-1.78
2023-02-28T04:06:18.330Z,-1.80
2023-02-28T04:08:48.017Z,-1.84
2023-02-28T04:11:23.347Z,-1.81
2023-02-28T04:13:51.407Z,-1.82
2023-02-28T04:16:33.892Z,-1.82
2023-02-28T04:19:04.286Z,-1.78
2023-02-28T04:21:33.679Z,-2.00
2023-02-28T04:24:03.157Z,-2.22
2023-02-28T04:26:31.868Z,-1.76
2023-02-28T04:29:00.119Z,-1.79
2023-02-28T04:31:28.250Z,-1.72
2023-02-28T04:33:56.311Z,-1.85
2023-02-28T04:36:24.198Z,-1.94
2023-02-28T04:38:51.964Z,-2.07
2023-02-28T04:41:21.093Z,-2.09
2023-02-28T04:43:49.200Z,-2.11
2023-02-28T04:46:17.064Z,-2.13
2023-02-28T04:48:45.259Z,-2.30
2023-02-28T04:51:14.420Z,-2.30
2023-02-28T04:53:43.422Z,-2.26
2023-02-28T04:56:14.248Z,-2.27
2023-02-28T04:58:43.626Z,-2.44
2023-02-28T05:01:20.191Z,-2.29
2023-02-28T05:03:47.822Z,-2.33
2023-02-28T05:06:16.875Z,-2.33
2023-02-28T05:08:44.891Z,-2.27
2023-02-28T05:11:17.815Z,-2.22
2023-02-28T05:13:47.327Z,-2.09
2023-02-28T05:16:15.063Z,-1.79
2023-02-28T05:18:43.221Z,-1.74
2023-02-28T05:21:26.583Z,-1.58
2023-02-28T05:23:55.111Z,-1.59
2023-02-28T05:26:22.985Z,-1.43
2023-02-28T05:28:51.995Z,-1.65
2023-02-28T05:31:19.956Z,-1.48
2023-02-28T05:33:48.020Z,-1.66
2023-02-28T05:36:16.023Z,-1.52
2023-02-28T05:38:43.774Z,-1.58
2023-02-28T05:41:13.132Z,-1.82
2023-02-28T05:43:40.817Z,-1.72
2023-02-28T05:46:11.847Z,-1.70
2023-02-28T05:48:41.203Z,-1.64
2023-02-28T05:51:10.046Z,-1.57
2023-02-28T05:53:38.287Z,-1.61
2023-02-28T05:56:06.400Z,-1.61
2023-02-28T05:58:35.580Z,-1.79
2023-02-28T06:01:23.658Z,-1.57
2023-02-28T06:03:51.522Z,-1.64
2023-02-28T06:06:19.494Z,-1.57
2023-02-28T06:08:47.226Z,-1.59
2023-02-28T06:11:15.131Z,-1.47
2023-02-28T06:13:42.979Z,-1.57
2023-02-28T06:16:12.426Z,-1.67
2023-02-28T06:18:41.440Z,-1.87
2023-02-28T06:21:09.821Z,-2.02
2023-02-28T06:23:37.626Z,-1.91
2023-02-28T06:26:05.611Z,-1.89
2023-02-28T06:28:33.852Z,-1.73
2023-02-28T06:31:01.594Z,-1.66
2023-02-28T06:33:29.229Z,-1.64
2023-02-28T06:35:58.202Z,-1.63
2023-02-28T06:38:25.843Z,-1.56
2023-02-28T06:40:56.865Z,-1.57
2023-02-28T06:43:24.656Z,-1.55
2023-02-28T06:45:52.466Z,-1.38
2023-02-28T06:48:20.082Z,-1.14
2023-02-28T06:50:47.851Z,-1.24
2023-02-28T06:53:16.851Z,-1.08
2023-02-28T06:55:44.539Z,-1.04
2023-02-28T06:58:19.893Z,-0.88
2023-02-28T07:00:52.196Z,-0.87
2023-02-28T07:03:20.530Z,-0.74
2023-02-28T07:05:48.191Z,-0.90
2023-02-28T07:08:17.205Z,-0.90
2023-02-28T07:10:44.954Z,-0.57
2023-02-28T07:13:12.643Z,-0.54
2023-02-28T07:15:43.679Z,-0.36
2023-02-28T07:18:11.859Z,-0.12
2023-02-28T07:20:39.605Z,0.07
2023-02-28T07:23:07.270Z,0.10
2023-02-28T07:25:36.280Z,0.11
2023-02-28T07:28:03.991Z,0.25
2023-02-28T07:30:31.637Z,0.32
2023-02-28T07:32:59.383Z,0.69
2023-02-28T07:35:27.043Z,0.62
2023-02-28T07:37:54.695Z,0.95
2023-02-28T07:40:22.359Z,1.00
2023-02-28T07:42:51.353Z,1.05
2023-02-28T07:45:19.237Z,0.95
2023-02-28T07:47:47.600Z,1.18
2023-02-28T07:50:17.686Z,0.99
2023-02-28T07:52:45.358Z,1.20
2023-02-28T07:55:14.493Z,1.47
2023-02-28T07:57:43.155Z,1.28
2023-02-28T08:00:14.636Z,1.47
2023-02-28T08:02:42.498Z,1.14
2023-02-28T08:05:10.808Z,1.31
2023-02-28T08:07:38.440Z,1.14
2023-02-28T08:10:07.516Z,1.12
2023-02-28T08:12:35.265Z,1.44
2023-02-28T08:15:02.884Z,1.60
2023-02-28T08:17:33.737Z,1.43
2023-02-28T08:20:02.956Z,1.45
2023-02-28T08:22:30.715Z,1.69
2023-02-28T08:24:58.334Z,1.39
2023-02-28T08:27:26.020Z,1.55
2023-02-28T08:29:53.731Z,1.72
2023-02-28T08:32:29.838Z,1.70
2023-02-28T08:34:59.285Z,1.83
2023-02-28T08:37:27.125Z,2.00
2023-02-28T08:39:56.409Z,2.33
2023-02-28T08:42:24.640Z,2.11
2023-02-28T08:44:52.371Z,2.21
2023-02-28T08:47:20.353Z,2.11
2023-02-28T08:49:48.143Z,2.50
2023-02-28T08:52:17.116Z,2.60
2023-02-28T08:54:44.805Z,2.50
2023-02-28T08:57:12.451Z,2.32
2023-02-28T08:59:40.740Z,2.64
2023-02-28T09:02:10.806Z,2.47
2023-02-28T09:04:38.441Z,2.54
2023-02-28T09:07:06.096Z,2.75
2023-02-28T09:09:35.129Z,2.88
2023-02-28T09:12:03.057Z,2.70
2023-02-28T09:14:30.925Z,2.84
2023-02-28T09:16:58.558Z,2.67
2023-02-28T09:19:26.256Z,2.90
2023-02-28T09:21:53.903Z,2.80
2023-02-28T09:24:21.640Z,2.93
2023-02-28T09:27:03.535Z,2.92
2023-02-28T09:29:32.299Z,2.84
2023-02-28T09:32:00.670Z,3.11
2023-02-28T09:34:28.988Z,3.09
2023-02-28T09:36:56.965Z,2.95
2023-02-28T09:39:27.590Z,3.41
2023-02-28T09:41:58.700Z,3.26
2023-02-28T09:44:33.098Z,3.18
2023-02-28T09:47:07.292Z,3.54
2023-02-28T09:49:42.340Z,3.58
2023-02-28T09:52:13.975Z,3.86
2023-02-28T09:54:42.301Z,3.84
2023-02-28T09:57:20.625Z,4.14
2023-02-28T10:00:02.533Z,4.25
2023-02-28T10:03:05.827Z,3.79
2023-02-28T10:05:38.605Z,3.70
2023-02-28T10:08:13.763Z,3.89
2023-02-28T10:10:44.214Z,3.81
2023-02-28T10:13:23.825Z,4.01
2023-02-28T10:15:57.089Z,3.99
2023-02-28T10:18:29.268Z,3.94
2023-02-28T10:20:57.976Z,4.53
2023-02-28T10:23:29.416Z,4.80
2023-02-28T10:26:01.582Z,4.78
2023-02-28T10:28:31.808Z,4.95
2023-02-28T10:31:00.648Z,4.96
2023-02-28T10:33:32.296Z,4.45
2023-02-28T10:36:00.916Z,3.98
2023-02-28T10:38:31.076Z,4.06
2023-02-28T10:41:09.920Z,4.08
2023-02-28T10:43:40.708Z,3.93
2023-02-28T10:46:16.380Z,4.28
2023-02-28T10:48:48.883Z,4.66
2023-02-28T10:51:20.156Z,5.07
2023-02-28T10:54:01.390Z,4.74
2023-02-28T10:56:32.203Z,4.50
2023-02-28T10:59:04.101Z,4.41
2023-02-28T11:01:41.204Z,4.41
2023-02-28T11:04:39.320Z,4.41
2023-02-28T11:07:08.887Z,4.78
2023-02-28T11:09:39.798Z,4.77
2023-02-28T11:12:10.419Z,4.74
2023-02-28T11:14:48.595Z,4.40
2023-02-28T11:17:22.580Z,4.68
2023-02-28T11:19:53.340Z,4.54
2023-02-28T11:22:23.717Z,4.63
2023-02-28T11:24:55.438Z,4.67
2023-02-28T11:27:41.704Z,5.05
2023-02-28T11:30:33.105Z,4.77
2023-02-28T11:33:00.891Z,4.71
2023-02-28T11:35:32.460Z,4.85
2023-02-28T11:38:00.478Z,5.16
2023-02-28T11:40:41.175Z,4.93
2023-02-28T11:43:21.469Z,5.26
2023-02-28T11:46:06.502Z,5.21
2023-02-28T11:48:44.889Z,5.42
2023-02-28T11:51:21.245Z,5.42
2023-02-28T11:54:23.096Z,5.31
2023-02-28T11:56:56.907Z,5.56
2023-02-28T11:59:45.364Z,5.74
2023-02-28T12:02:31.512Z,5.73
2023-02-28T12:05:13.101Z,5.95
2023-02-28T12:07:51.623Z,5.66
2023-02-28T12:10:24.789Z,5.75
2023-02-28T12:13:05.751Z,5.79
2023-02-28T12:15:57.587Z,6.14
2023-02-28T12:18:39.627Z,6.02
2023-02-28T12:21:16.929Z,6.27
2023-02-28T12:23:59.613Z,6.11
2023-02-28T12:26:38.699Z,6.37
2023-02-28T12:29:14.597Z,6.07
2023-02-28T12:31:48.152Z,5.88
2023-02-28T12:34:22.546Z,6.07
2023-02-28T12:36:52.802Z,6.18
2023-02-28T12:39:26.338Z,6.11
2023-02-28T12:41:57.878Z,6.21
2023-02-28T12:44:32.526Z,6.24
2023-02-28T12:47:05.718Z,6.37
2023-02-28T12:49:40.297Z,6.19
2023-02-28T12:52:11.998Z,6.30
2023-02-28T12:54:50.387Z,6.32
2023-02-28T12:57:25.046Z,6.04
2023-02-28T12:59:56.127Z,6.02
2023-02-28T13:02:57.845Z,6.18
2023-02-28T13:06:16.981Z,6.28
2023-02-28T13:09:04.105Z,6.63
2023-02-28T13:11:34.337Z,6.69
2023-02-28T13:14:04.889Z,6.68
2023-02-28T13:16:53.070Z,6.53
2023-02-28T13:19:24.055Z,6.38
2023-02-28T13:21:52.798Z,6.81
2023-02-28T13:24:42.690Z,7.03
2023-02-28T13:27:35.868Z,6.44
2023-02-28T13:30:42.216Z,6.37
2023-02-28T13:33:30.982Z,6.48
2023-02-28T13:36:24.843Z,6.37
2023-02-28T13:38:54.350Z,6.74
2023-02-28T13:41:47.731Z,6.12
2023-02-28T13:44:18.618Z,6.16
2023-02-28T13:47:25.416Z,6.25
2023-02-28T13:49:53.913Z,6.35
2023-02-28T13:52:25.714Z,6.40
2023-02-28T13:55:05.859Z,6.48
2023-02-28T13:57:53.009Z,6.80
2023-02-28T14:00:30.740Z,6.67
2023-02-28T14:03:24.199Z,6.44
2023-02-28T14:06:11.410Z,6.09
2023-02-28T14:08:39.371Z,5.95
2023-02-28T14:11:08.963Z,6.03
2023-02-28T14:13:46.140Z,6.00
2023-02-28T14:16:16.603Z,6.04
2023-02-28T14:18:52.138Z,6.20
2023-02-28T14:21:26.446Z,6.32
2023-02-28T14:24:26.886Z,6.34
2023-02-28T14:27:05.715Z,6.27
2023-02-28T14:30:05.529Z,6.13
2023-02-28T14:32:36.896Z,6.18
2023-02-28T14:35:18.721Z,6.12
2023-02-28T14:37:46.883Z,5.88
2023-02-28T14:40:18.119Z,5.91
2023-02-28T14:42:50.377Z,6.04
2023-02-28T14:45:23.383Z,6.08
2023-02-28T14:47:53.231Z,5.80
2023-02-28T14:50:22.500Z,5.64
2023-02-28T14:52:53.443Z,5.68
2023-02-28T14:55:26.205Z,5.90
2023-02-28T14:57:56.593Z,5.63
2023-02-28T15:00:28.302Z,5.55
2023-02-28T15:02:57.188Z,5.64
2023-02-28T15:05:28.635Z,5.28
2023-02-28T15:08:12.591Z,5.24
2023-02-28T15:10:42.138Z,5.14
2023-02-28T15:13:14.174Z,5.18
2023-02-28T15:16:05.241Z,5.45
2023-02-28T15:18:44.404Z,5.54
2023-02-28T15:21:15.999Z,5.30
2023-02-28T15:23:48.494Z,5.27
2023-02-28T15:26:21.280Z,5.28
2023-02-28T15:28:51.757Z,5.50
2023-02-28T15:31:31.944Z,5.47
2023-02-28T15:34:06.432Z,5.66
2023-02-28T15:36:38.116Z,5.35
2023-02-28T15:39:21.223Z,5.31
2023-02-28T15:41:49.232Z,5.50
2023-02-28T15:44:19.123Z,5.21
2023-02-28T15:46:58.870Z,5.53
2023-02-28T15:49:27.295Z,5.69
2023-02-28T15:51:58.062Z,5.67
2023-02-28T15:54:30.543Z,5.47
2023-02-28T15:57:02.598Z,5.61
2023-02-28T15:59:32.974Z,5.65
2023-02-28T16:02:15.925Z,5.54
2023-02-28T16:05:01.880Z,5.53
2023-02-28T16:07:30.583Z,5.57
2023-02-28T16:09:58.201Z,5.50
2023-02-28T16:12:28.736Z,5.48
2023-02-28T16:14:58.901Z,5.63
2023-02-28T16:17:30.353Z,5.50
2023-02-28T16:19:59.026Z,5.62
2023-02-28T16:22:27.294Z,5.64
2023-02-28T16:24:55.002Z,5.56
2023-02-28T16:27:27.015Z,5.57
2023-02-28T16:29:55.623Z,5.58
2023-02-28T16:32:23.538Z,5.27
2023-02-28T16:34:52.666Z,4.76
2023-02-28T16:37:20.712Z,5.45
2023-02-28T16:39:50.334Z,5.41
2023-02-28T16:42:25.778Z,5.34
2023-02-28T16:44:54.498Z,5.27
2023-02-28T16:47:22.531Z,5.07
2023-02-28T16:49:50.230Z,5.00
2023-02-28T16:52:19.171Z,4.96
2023-02-28T16:54:46.846Z,4.89
2023-02-28T16:57:20.297Z,4.85
2023-02-28T16:59:48.012Z,4.64
2023-02-28T17:02:20.244Z,4.37
2023-02-28T17:04:48.306Z,4.23
2023-02-28T17:07:18.023Z,4.24
2023-02-28T17:09:47.565Z,4.13
2023-02-28T17:12:15.495Z,3.97
2023-02-28T17:14:43.202Z,3.74
2023-02-28T17:17:17.551Z,3.49
2023-02-28T17:19:45.281Z,3.56
2023-02-28T17:22:13.422Z,3.64
2023-02-28T17:24:41.242Z,3.49
2023-02-28T17:27:13.874Z,3.31
2023-02-28T17:29:42.577Z,3.02
2023-02-28T17:32:17.737Z,3.02
2023-02-28T17:34:46.814Z,2.81
2023-02-28T17:37:14.828Z,2.72
2023-02-28T17:39:42.510Z,2.57
2023-02-28T17:42:10.201Z,2.51
2023-02-28T17:44:39.563Z,2.43
2023-02-28T17:47:07.639Z,2.28
2023-02-28T17:49:35.316Z,2.13
2023-02-28T17:52:03.120Z,2.00
2023-02-28T17:54:30.830Z,1.89
2023-02-28T17:56:58.558Z,1.69
2023-02-28T17:59:26.479Z,1.66
2023-02-28T18:01:55.964Z,1.53
2023-02-28T18:04:23.649Z,1.48
2023-02-28T18:06:52.555Z,1.34
2023-02-28T18:09:22.619Z,1.12
2023-02-28T18:11:51.014Z,1.20
2023-02-28T18:14:20.322Z,1.09
2023-02-28T18:16:48.187Z,1.06
2023-02-28T18:19:17.688Z,0.93
2023-02-28T18:21:46.282Z,0.81
2023-02-28T18:24:15.125Z,0.71
2023-02-28T18:26:43.903Z,0.69
2023-02-28T18:29:18.527Z,0.63
2023-02-28T18:31:46.388Z,0.61
2023-02-28T18:34:15.064Z,0.61
2023-02-28T18:36:46.990Z,0.27
2023-02-28T18:39:15.372Z,0.39
2023-02-28T18:41:43.422Z,0.38
2023-02-28T18:44:19.829Z,0.32
2023-02-28T18:46:48.605Z,0.27
2023-02-28T18:49:16.303Z,0.23
2023-02-28T18:51:46.479Z,0.14
2023-02-28T18:54:16.644Z,-0.34
2023-02-28T18:56:44.585Z,0.05
2023-02-28T18:59:12.808Z,0.10
2023-02-28T19:01:40.894Z,0.05
2023-02-28T19:06:38.458Z,-0.01
2023-02-28T19:09:07.696Z,-0.03
2023-02-28T19:11:36.799Z,-0.03
2023-02-28T19:14:04.856Z,-0.07
2023-02-28T19:16:32.915Z,-0.12
2023-02-28T19:19:00.734Z,-0.11
2023-02-28T19:21:28.404Z,-0.16
2023-02-28T19:23:56.062Z,-0.13
2023-02-28T19:26:26.390Z,-0.15
2023-02-28T19:28:54.159Z,-0.19
2023-02-28T19:31:24.147Z,-0.24
2023-02-28T19:33:53.111Z,-0.22
2023-02-28T19:36:21.959Z,-0.25
2023-02-28T19:38:50.429Z,-0.32
2023-02-28T19:41:19.563Z,-0.37
2023-02-28T19:43:48.530Z,-0.27
2023-02-28T19:46:16.582Z,-0.19
2023-02-28T19:48:44.807Z,-0.21
2023-02-28T19:51:14.850Z,-0.24
2023-02-28T19:53:43.592Z,-0.29
2023-02-28T19:56:12.080Z,-0.28
2023-02-28T19:58:40.210Z,-0.27
2023-02-28T20:01:11.032Z,-0.31
2023-02-28T20:03:38.844Z,-0.31
2023-02-28T20:06:09.707Z,-0.34
2023-02-28T20:08:38.365Z,-0.22
2023-02-28T20:11:07.954Z,-0.14
2023-02-28T20:13:36.104Z,-0.14
2023-02-28T20:16:06.781Z,-0.13
2023-02-28T20:18:36.644Z,-0.09
2023-02-28T20:21:04.895Z,0.01
2023-02-28T20:23:32.601Z,-0.11
2023-02-28T20:26:00.480Z,0.06
2023-02-28T20:28:28.643Z,-0.03
2023-02-28T20:30:56.879Z,0.11
2023-02-28T20:33:24.684Z,0.03
2023-02-28T20:36:00.810Z,-0.07
2023-02-28T20:38:29.056Z,0.13
2023-02-28T20:40:56.917Z,0.17
2023-02-28T20:43:24.664Z,0.11
2023-02-28T20:45:53.217Z,0.19
2023-02-28T20:48:21.974Z,-0.04
2023-02-28T20:50:50.332Z,0.03
2023-02-28T20:53:19.693Z,0.15
2023-02-28T20:55:55.374Z,0.24
2023-02-28T20:58:23.237Z,0.24
2023-02-28T21:00:50.840Z,0.19
2023-02-28T21:03:18.470Z,0.15
2023-02-28T21:05:46.172Z,0.27
2023-02-28T21:08:13.814Z,0.29
2023-02-28T21:10:42.797Z,0.18
2023-02-28T21:13:10.483Z,0.25
2023-02-28T21:15:39.150Z,-0.10
2023-02-28T21:18:06.949Z,0.23
2023-02-28T21:20:34.645Z,0.23
2023-02-28T21:23:02.298Z,0.15
2023-02-28T21:25:30.059Z,0.12
2023-02-28T21:27:59.058Z,0.16
2023-02-28T21:30:26.763Z,0.11
2023-02-28T21:32:54.413Z,0.13
2023-02-28T21:35:22.086Z,0.05
2023-02-28T21:37:49.862Z,0.12
2023-02-28T21:40:17.893Z,0.12
2023-02-28T21:42:45.539Z,0.05
2023-02-28T21:45:14.475Z,0.08
2023-02-28T21:47:42.141Z,0.11
2023-02-28T21:50:11.582Z,0.15
2023-02-28T21:52:39.208Z,0.34
2023-02-28T21:55:07.668Z,0.35
2023-02-28T21:57:35.923Z,0.21
2023-02-28T22:00:05.320Z,0.25
2023-02-28T22:02:41.255Z,0.07
2023-02-28T22:05:09.495Z,0.32
2023-02-28T22:07:37.113Z,0.28
2023-02-28T22:10:05.304Z,0.18
2023-02-28T22:12:32.990Z,0.20
2023-02-28T22:15:00.676Z,0.15
2023-02-28T22:17:28.385Z,0.13
2023-02-28T22:19:57.360Z,0.14
2023-02-28T22:22:25.870Z,0.22
2023-02-28T22:24:53.661Z,0.23
2023-02-28T22:27:21.304Z,0.28
2023-02-28T22:29:48.968Z,0.29
2023-02-28T22:32:16.743Z,0.31
2023-02-28T22:34:44.413Z,0.25
2023-02-28T22:37:13.409Z,0.14
2023-02-28T22:39:41.321Z,0.04
2023-02-28T22:42:09.650Z,0.04
2023-02-28T22:44:37.930Z,-0.08
2023-02-28T22:47:06.037Z,0.01
2023-02-28T22:49:33.701Z,-0.03
2023-02-28T22:52:01.352Z,-0.03
2023-02-28T22:54:31.168Z,-0.10
2023-02-28T22:56:58.759Z,0.15
2023-02-28T22:59:26.458Z,0.16
2023-02-28T23:01:54.122Z,0.07
2023-02-28T23:04:25.570Z,-0.02
2023-02-28T23:06:53.436Z,-0.34
2023-02-28T23:09:21.527Z,0.04
2023-02-28T23:11:52.149Z,0.07
2023-02-28T23:14:21.414Z,0.01
2023-02-28T23:16:50.643Z,-0.05
2023-02-28T23:19:21.024Z,-0.08
2023-02-28T23:21:49.913Z,-0.21
2023-02-28T23:24:19.951Z,-0.15
2023-02-28T23:26:51.348Z,-0.17
2023-02-28T23:29:21.199Z,-0.28
2023-02-28T23:31:50.248Z,-0.33
2023-02-28T23:34:26.074Z,-0.27
2023-02-28T23:36:54.541Z,-0.35
2023-02-28T23:39:23.954Z,-0.38
2023-02-28T23:41:52.970Z,-0.35
2023-02-28T23:44:20.702Z,-0.34
2023-02-28T23:46:49.861Z,-0.24
2023-02-28T23:49:19.803Z,-0.30
2023-02-28T23:51:47.801Z,-0.26
2023-02-28T23:54:15.599Z,-0.17
2023-02-28T23:56:43.268Z,-0.22
2023-02-28T23:59:12.442Z,-0.31
